Time;durP1;ratioP1;P1;durP2;ratioP2;P2;SDS_P1;SDS_P2;PMS_P1;PMS_P2;Temp;Humidity;BMP_temperature;BMP_pressure;BME280_temperature;BME280_humidity;BME280_pressure;Samples;Min_cycle;Max_cycle;Signal;HPM_P1;HPM_P2
2022/04/10 00:01:49;;;;;;;15.65;8.05;;;;;;;1.59;84.19;101808.41;5068152;28;20054;-69
2022/04/10 00:04:14;;;;;;;18.00;7.85;;;;;;;1.62;84.16;101813.56;5066126;28;20033;-69
2022/04/10 00:06:40;;;;;;;18.63;8.30;;;;;;;1.62;84.62;101808.38;5062587;28;20062;-69
2022/04/10 00:09:12;;;;;;;17.30;8.27;;;;;;;1.63;84.88;101815.28;5069621;28;20502;-69
2022/04/10 00:11:37;;;;;;;16.17;8.70;;;;;;;1.66;84.40;101804.81;5070323;28;20078;-70
2022/04/10 00:14:03;;;;;;;14.18;8.27;;;;;;;1.67;84.52;101811.72;5086072;28;20484;-69
2022/04/10 00:16:28;;;;;;;13.80;8.18;;;;;;;1.67;84.57;101803.94;5068584;28;20127;-69
2022/04/10 00:18:54;;;;;;;17.45;8.68;;;;;;;1.71;84.32;101796.94;5070545;28;20082;-69
2022/04/10 00:21:20;;;;;;;15.75;8.50;;;;;;;1.70;84.74;101797.81;5068974;28;20119;-69
2022/04/10 00:23:45;;;;;;;15.52;8.98;;;;;;;1.74;84.09;101797.72;5068732;28;20104;-69
2022/04/10 00:26:12;;;;;;;15.27;8.45;;;;;;;1.73;84.42;101801.22;5069603;28;20032;-69
2022/04/10 00:28:37;;;;;;;20.60;8.95;;;;;;;1.73;84.62;101806.41;5070732;28;20407;-69
2022/04/10 00:31:02;;;;;;;17.60;8.98;;;;;;;1.72;84.66;101799.50;5068071;28;20028;-69
2022/04/10 00:33:27;;;;;;;16.08;8.93;;;;;;;1.72;84.60;101798.66;5070908;28;20099;-69
2022/04/10 00:35:53;;;;;;;18.83;9.57;;;;;;;1.72;84.18;101803.84;5070545;28;20074;-69
2022/04/10 00:38:20;;;;;;;15.40;8.77;;;;;;;1.70;84.53;101806.47;5068374;28;20073;-69
2022/04/10 00:40:45;;;;;;;19.20;9.32;;;;;;;1.67;84.38;101797.91;5069915;28;20020;-69
2022/04/10 00:43:11;;;;;;;17.20;9.38;;;;;;;1.64;84.51;101796.22;5069005;28;20089;-69
2022/04/10 00:45:43;;;;;;;18.83;9.82;;;;;;;1.60;84.92;101793.72;5068479;28;20024;-69
2022/04/10 00:48:09;;;;;;;;;;;;;;;1.70;82.96;101790.03;5070352;28;20532;-69
2022/04/10 00:50:34;;;;;;;19.73;10.55;;;;;;;1.59;84.43;101790.25;5068576;28;20006;-69
2022/04/10 00:53:03;;;;;;;17.05;10.57;;;;;;;1.57;85.19;101786.84;5069764;28;20028;-69
2022/04/10 00:55:29;;;;;;;16.35;10.30;;;;;;;1.53;85.28;101788.66;5069581;28;20024;-69
2022/04/10 00:57:54;;;;;;;18.75;10.30;;;;;;;1.54;85.49;101792.09;5069138;28;20388;-69
2022/04/10 01:00:19;;;;;;;21.33;11.20;;;;;;;1.54;85.15;101792.94;5068764;28;20443;-69
2022/04/10 01:02:49;;;;;;;19.52;11.07;;;;;;;1.52;85.89;101797.31;5069309;28;20404;-69
2022/04/10 01:05:15;;;;;;;19.08;10.80;;;;;;;1.53;85.83;101791.25;5059926;28;20024;-69
2022/04/10 01:07:40;;;;;;;16.02;11.18;;;;;;;1.53;86.37;101787.81;5069357;28;20099;-69
2022/04/10 01:10:07;;;;;;;20.42;10.88;;;;;;;1.51;85.86;101795.63;5069877;28;20412;-70
2022/04/10 01:12:34;;;;;;;25.58;11.35;;;;;;;1.49;86.11;101791.34;5068727;28;20036;-72
2022/04/10 01:14:59;;;;;;;17.77;10.77;;;;;;;1.48;86.29;101797.41;5069438;28;20024;-69
2022/04/10 01:17:29;;;;;;;19.05;11.63;;;;;;;1.48;86.48;101793.09;5068773;28;20073;-70
2022/04/10 01:19:55;;;;;;;25.25;11.57;;;;;;;1.48;86.28;101794.81;5068816;28;20055;-69
2022/04/10 01:22:32;;;;;;;22.27;11.23;;;;;;;1.50;86.66;101787.88;5069441;28;20925;-69
2022/04/10 01:24:58;;;;;;;21.45;11.60;;;;;;;1.50;86.29;101793.91;5069007;28;20029;-69
2022/04/10 01:27:24;;;;;;;18.90;11.75;;;;;;;1.51;87.07;101792.16;5068358;28;20472;-69
2022/04/10 01:29:49;;;;;;;21.35;12.80;;;;;;;1.49;87.26;101787.00;5064041;28;20025;-69
2022/04/10 01:32:14;;;;;;;18.88;11.40;;;;;;;1.53;87.34;101795.56;5056577;28;20063;-70
2022/04/10 01:34:41;;;;;;;21.25;12.25;;;;;;;1.55;86.97;101799.00;5067325;28;20410;-70
2022/04/10 01:37:07;;;;;;;21.85;12.38;;;;;;;1.54;87.19;101795.53;5069098;28;20036;-69
2022/04/10 01:39:34;;;;;;;24.23;12.63;;;;;;;1.55;86.60;101791.22;5069574;28;20016;-70
2022/04/10 01:41:59;;;;;;;17.73;12.15;;;;;;;1.52;87.25;101799.91;5068528;28;20067;-70
2022/04/10 01:44:24;;;;;;;18.58;12.27;;;;;;;1.56;87.33;101796.38;5069624;28;20416;-69
2022/04/10 01:46:50;;;;;;;18.77;12.38;;;;;;;1.53;87.35;101798.16;5067692;28;20025;-69
2022/04/10 01:49:15;;;;;;;22.10;12.82;;;;;;;1.53;87.83;101799.03;5067691;28;20060;-70
2022/04/10 01:51:41;;;;;;;21.25;12.50;;;;;;;1.52;87.99;101802.50;5068780;28;20028;-70
2022/04/10 01:54:06;;;;;;;19.17;12.40;;;;;;;1.52;87.63;101802.50;5068215;28;20062;-70
2022/04/10 01:56:39;;;;;;;18.52;12.93;;;;;;;1.51;86.80;101807.72;5069307;28;20466;-69
2022/04/10 01:59:04;;;;;;;21.23;12.60;;;;;;;1.48;87.10;101812.97;5068123;28;20032;-69
2022/04/10 02:01:29;;;;;;;21.70;12.30;;;;;;;1.45;87.62;101810.44;5062873;28;20399;-69
2022/04/10 02:03:55;;;;;;;19.98;11.90;;;;;;;1.43;86.98;101817.41;5062360;28;20441;-69
2022/04/10 02:06:20;;;;;;;21.35;12.38;;;;;;;1.40;86.99;101812.28;5068257;28;20077;-69
2022/04/10 02:08:45;;;;;;;20.50;12.40;;;;;;;1.39;86.68;101821.81;5067984;28;20024;-69
2022/04/10 02:11:12;;;;;;;20.65;12.90;;;;;;;1.36;86.85;101815.84;5068254;28;20024;-69
2022/04/10 02:13:38;;;;;;;17.48;13.10;;;;;;;1.34;86.73;101817.59;5065974;28;20392;-70
2022/04/10 02:16:05;;;;;;;19.77;12.15;;;;;;;1.31;86.89;101817.66;5058720;28;20025;-69
2022/04/10 02:18:30;;;;;;;20.48;12.50;;;;;;;1.30;86.39;101813.38;5068713;28;20376;-69
2022/04/10 02:20:56;;;;;;;19.08;12.48;;;;;;;1.28;86.27;101812.53;5063829;28;20056;-69
2022/04/10 02:23:21;;;;;;;21.00;12.35;;;;;;;1.20;86.29;101813.56;5066491;28;20063;-69
2022/04/10 02:25:46;;;;;;;22.90;12.57;;;;;;;1.20;86.39;101810.09;5068243;28;20024;-69
2022/04/10 02:28:11;;;;;;;18.02;12.30;;;;;;;1.15;86.09;101812.75;5066430;28;20052;-70
2022/04/10 02:30:38;;;;;;;17.45;11.32;;;;;;;1.14;86.06;101816.25;5068009;28;20420;-70
2022/04/10 02:33:03;;;;;;;19.38;12.18;;;;;;;1.07;85.94;101819.84;5069125;28;20025;-70
2022/04/10 02:35:29;;;;;;;19.98;11.77;;;;;;;1.06;85.84;101819.88;5069511;28;20030;-69
2022/04/10 02:37:54;;;;;;;18.25;11.82;;;;;;;1.03;86.21;101823.38;5067461;28;20365;-69
2022/04/10 02:40:19;;;;;;;21.75;12.15;;;;;;;1.00;86.26;101823.44;5068700;28;20218;-70
2022/04/10 02:42:45;;;;;;;19.60;12.30;;;;;;;0.98;86.22;101817.44;5050927;28;20021;-69
2022/04/10 02:45:11;;;;;;;19.13;12.15;;;;;;;0.93;86.06;101812.34;5068445;28;20024;-69
2022/04/10 02:47:39;;;;;;;15.55;12.25;;;;;;;0.91;86.20;101823.63;5067601;28;20488;-69
2022/04/10 02:50:05;;;;;;;17.23;12.43;;;;;;;0.88;86.37;101828.84;5067793;28;20524;-70
2022/04/10 02:52:30;;;;;;;20.02;12.32;;;;;;;0.86;86.57;101833.22;5068896;28;20100;-69
2022/04/10 02:54:56;;;;;;;17.15;12.43;;;;;;;0.82;86.25;101835.00;5068525;28;20032;-69
2022/04/10 02:57:21;;;;;;;18.50;12.00;;;;;;;0.78;86.61;101832.47;5067674;28;20498;-69
2022/04/10 02:59:46;;;;;;;19.60;11.98;;;;;;;0.74;86.08;101836.00;5070000;28;20131;-69
2022/04/10 03:02:12;;;;;;;17.52;12.30;;;;;;;0.70;86.29;101839.53;5071786;28;20082;-69
2022/04/10 03:04:37;;;;;;;18.05;12.90;;;;;;;0.69;86.30;101835.22;5071004;28;20465;-70
2022/04/10 03:07:03;;;;;;;16.77;13.00;;;;;;;0.68;87.30;101836.09;5071281;28;20082;-70
2022/04/10 03:09:28;;;;;;;19.38;12.88;;;;;;;0.67;87.10;101839.56;5071851;28;20409;-70
2022/04/10 03:11:53;;;;;;;16.45;12.27;;;;;;;0.63;86.16;101834.44;5071031;28;20099;-70
2022/04/10 03:14:19;;;;;;;18.77;12.73;;;;;;;0.58;86.63;101830.22;5070768;28;20028;-70
2022/04/10 03:16:44;;;;;;;19.98;12.00;;;;;;;0.58;86.53;101840.59;5071176;28;20383;-70
2022/04/10 03:19:09;;;;;;;19.48;12.35;;;;;;;0.54;86.74;101839.78;5070379;28;20017;-69
2022/04/10 03:21:34;;;;;;;21.52;12.60;;;;;;;0.51;86.28;101845.03;5065713;28;20021;-69
2022/04/10 03:24:03;;;;;;;24.77;12.98;;;;;;;0.48;86.15;101845.06;5071012;28;20385;-70
2022/04/10 03:26:29;;;;;;;19.90;12.80;;;;;;;0.44;86.82;101840.81;5069735;28;20054;-69
2022/04/10 03:28:55;;;;;;;18.40;12.73;;;;;;;0.42;86.72;101840.00;5071066;28;20021;-70
2022/04/10 03:31:22;;;;;;;18.42;13.05;;;;;;;0.39;86.87;101845.19;5071099;28;20544;-70
2022/04/10 03:33:48;;;;;;;22.00;13.15;;;;;;;0.36;87.29;101853.00;5068950;28;20275;-70
2022/04/10 03:36:14;;;;;;;18.45;12.20;;;;;;;0.30;86.94;101853.09;5071355;28;20027;-69
2022/04/10 03:38:39;;;;;;;17.40;12.45;;;;;;;0.30;86.96;101855.69;5070978;28;20020;-69
2022/04/10 03:41:05;;;;;;;23.23;13.50;;;;;;;0.30;86.99;101855.69;5070016;28;20036;-69
2022/04/10 03:43:32;;;;;;;16.33;12.40;;;;;;;0.26;86.92;101859.22;5071625;28;20431;-69
2022/04/10 03:46:04;;;;;;;18.25;12.57;;;;;;;0.25;87.72;101860.94;5071327;28;20073;-69
2022/04/10 03:48:29;;;;;;;19.20;12.27;;;;;;;0.24;87.71;101858.38;5070951;28;20024;-70
2022/04/10 03:50:55;;;;;;;17.85;13.07;;;;;;;0.21;87.34;101867.06;5071271;28;20334;-70
2022/04/10 03:53:20;;;;;;;18.30;12.05;;;;;;;0.20;87.55;101867.06;5070671;28;20503;-70
2022/04/10 03:55:45;;;;;;;20.58;12.57;;;;;;;0.17;87.79;101864.53;5071135;28;20024;-70
2022/04/10 03:58:11;;;;;;;19.85;12.23;;;;;;;0.16;87.69;101878.34;5069225;28;20020;-70
2022/04/10 04:00:37;;;;;;;18.23;12.25;;;;;;;0.13;87.97;101865.47;5063389;28;20048;-70
2022/04/10 04:03:02;;;;;;;16.98;11.77;;;;;;;0.12;87.82;101866.34;5069788;28;20044;-71
2022/04/10 04:05:28;;;;;;;16.17;12.60;;;;;;;0.12;88.08;101863.75;5069294;28;20369;-71
2022/04/10 04:07:54;;;;;;;20.23;12.65;;;;;;;0.12;88.32;101868.94;5068897;28;20032;-70
2022/04/10 04:10:19;;;;;;;19.50;13.27;;;;;;;0.10;88.60;101868.94;5068804;28;20024;-70
2022/04/10 04:12:45;;;;;;;17.80;12.00;;;;;;;0.11;88.31;101874.97;5070604;28;20480;-70
2022/04/10 04:15:11;;;;;;;19.52;13.13;;;;;;;0.09;88.29;101876.72;5066765;28;20464;-70
2022/04/10 04:17:37;;;;;;;16.65;12.43;;;;;;;0.09;88.41;101876.72;5068572;28;20025;-70
2022/04/10 04:20:05;;;;;;;19.25;12.80;;;;;;;0.08;88.72;101875.03;5068845;28;20035;-70
2022/04/10 04:22:30;;;;;;;17.20;12.45;;;;;;;0.07;88.78;101878.50;5063862;28;20021;-70
2022/04/10 04:24:56;;;;;;;18.73;12.55;;;;;;;0.05;88.70;101875.06;5068020;28;20077;-71
2022/04/10 04:27:21;;;;;;;18.92;11.75;;;;;;;0.07;88.74;101881.94;5068949;28;20028;-71
2022/04/10 04:29:46;;;;;;;18.65;12.30;;;;;;;0.06;89.35;101871.59;5067928;28;20692;-70
2022/04/10 04:32:12;;;;;;;18.80;11.45;;;;;;;0.06;89.63;101877.63;5066315;28;20032;-71
2022/04/10 04:34:37;;;;;;;19.63;12.88;;;;;;;0.09;90.08;101871.56;5068285;28;20086;-70
2022/04/10 04:37:02;;;;;;;18.23;11.80;;;;;;;0.09;89.75;101881.91;5066948;28;20044;-70
2022/04/10 04:39:28;;;;;;;17.25;11.38;;;;;;;0.09;89.95;101884.50;5068424;28;20052;-70
2022/04/10 04:41:53;;;;;;;18.42;11.85;;;;;;;0.10;89.56;101883.63;5069214;28;20028;-69
2022/04/10 04:44:18;;;;;;;19.35;12.02;;;;;;;0.11;89.61;101882.75;5068688;28;20050;-69
2022/04/10 04:46:43;;;;;;;18.27;11.73;;;;;;;0.11;89.88;101880.16;5069897;28;20021;-69
2022/04/10 04:49:09;;;;;;;22.58;11.00;;;;;;;0.10;89.53;101884.47;5068107;28;20046;-69
2022/04/10 04:51:37;;;;;;;16.83;11.45;;;;;;;0.08;89.37;101885.38;5063770;28;20093;-69
2022/04/10 04:54:04;;;;;;;16.75;10.77;;;;;;;0.07;89.16;101887.09;5066212;28;20036;-70
2022/04/10 04:56:30;;;;;;;21.83;11.80;;;;;;;0.05;88.94;101880.25;5069698;28;20035;-70
2022/04/10 04:58:55;;;;;;;14.70;11.23;;;;;;;0.04;89.41;101883.72;5064078;28;20021;-69
2022/04/10 05:01:20;;;;;;;18.75;11.20;;;;;;;0.04;89.28;101887.16;5067519;28;20149;-69
2022/04/10 05:03:46;;;;;;;16.42;11.13;;;;;;;0.02;89.04;101891.50;5068577;28;20484;-69
2022/04/10 05:06:11;;;;;;;18.77;11.27;;;;;;;0.01;89.31;101894.94;5068880;28;20395;-70
2022/04/10 05:08:40;;;;;;;13.25;10.30;;;;;;;-0.01;88.67;101897.53;5069552;28;20031;-69
2022/04/10 05:11:07;;;;;;;16.77;10.85;;;;;;;-0.02;89.56;101901.00;5064555;28;20056;-70
2022/04/10 05:13:33;;;;;;;15.90;10.98;;;;;;;-0.03;89.49;101904.47;5063777;28;20033;-69
2022/04/10 05:15:58;;;;;;;15.95;11.55;;;;;;;-0.04;89.45;101902.75;5064530;28;20024;-70
2022/04/10 05:18:23;;;;;;;15.40;10.80;;;;;;;-0.01;89.07;101907.88;5067221;28;20049;-70
2022/04/10 05:20:48;;;;;;;16.27;10.90;;;;;;;-0.01;89.18;101910.47;5068280;28;20020;-70
2022/04/10 05:23:18;;;;;;;18.70;11.20;;;;;;;-0.01;89.43;101907.88;5066662;28;20062;-70
2022/04/10 05:25:44;;;;;;;18.50;10.73;;;;;;;-0.02;89.85;101913.94;5068003;28;20025;-70
2022/04/10 05:28:09;;;;;;;17.73;10.88;;;;;;;0.01;89.40;101917.38;5070074;28;20736;-70
2022/04/10 05:30:35;;;;;;;16.17;11.13;;;;;;;0.01;90.58;101914.78;5070094;28;20525;-70
2022/04/10 05:33:03;;;;;;;19.02;11.20;;;;;;;0.03;90.47;101918.22;5068678;28;20162;-70
2022/04/10 05:35:29;;;;;;;18.77;11.02;;;;;;;0.03;90.65;101923.38;5068763;28;20033;-69
2022/04/10 05:37:54;;;;;;;22.73;10.50;;;;;;;0.07;90.48;101930.22;5061723;28;20035;-71
2022/04/10 05:40:21;;;;;;;18.42;11.15;;;;;;;0.09;90.58;101933.66;5068354;28;20054;-69
2022/04/10 05:42:47;;;;;;;15.25;10.50;;;;;;;0.15;90.85;101933.56;5067970;28;20058;-70
2022/04/10 05:45:12;;;;;;;14.23;10.40;;;;;;;0.18;90.94;101933.53;5068945;28;20060;-70
2022/04/10 05:47:39;;;;;;;15.50;10.40;;;;;;;0.22;91.03;101930.88;5067784;28;20017;-70
2022/04/10 05:50:06;;;;;;;14.63;10.23;;;;;;;0.27;91.31;101939.41;5066746;28;20515;-70
2022/04/10 05:52:36;;;;;;;20.35;10.48;;;;;;;0.32;91.40;101947.13;5068415;28;20468;-70
2022/04/10 05:55:02;;;;;;;19.52;10.35;;;;;;;0.39;91.47;101946.16;5062159;28;20380;-70
2022/04/10 05:57:27;;;;;;;15.45;10.88;;;;;;;0.45;91.76;101947.81;5068076;28;20017;-70
2022/04/10 05:59:53;;;;;;;17.27;10.10;;;;;;;0.53;91.42;101951.16;5069111;28;20082;-70
2022/04/10 06:02:18;;;;;;;15.55;9.85;;;;;;;0.58;91.32;101955.38;5068454;28;20028;-70
2022/04/10 06:04:43;;;;;;;17.25;9.52;;;;;;;0.69;91.80;101962.13;5069002;28;20524;-70
2022/04/10 06:07:08;;;;;;;15.73;10.27;;;;;;;0.75;91.98;101962.88;5067759;28;20024;-70
2022/04/10 06:09:34;;;;;;;17.63;9.90;;;;;;;0.83;92.06;101965.38;5066409;28;20056;-70
2022/04/10 06:11:59;;;;;;;14.85;9.10;;;;;;;0.91;91.04;101966.97;5064707;28;20032;-70
2022/04/10 06:14:24;;;;;;;17.13;9.98;;;;;;;1.00;91.52;101978.91;5066370;28;20031;-70
2022/04/10 06:16:50;;;;;;;19.40;10.48;;;;;;;1.07;91.72;101975.31;5065193;28;20040;-69
2022/04/10 06:19:16;;;;;;;19.83;10.15;;;;;;;1.14;91.72;101979.53;5065521;28;20412;-70
2022/04/10 06:21:42;;;;;;;21.02;10.68;;;;;;;1.23;92.35;101987.16;5065808;28;20028;-70
2022/04/10 06:24:07;;;;;;;20.02;10.88;;;;;;;1.35;92.47;101995.59;5063246;28;20024;-70
2022/04/10 06:26:33;;;;;;;16.90;10.45;;;;;;;1.44;92.26;101990.25;5066981;28;20038;-70
2022/04/10 06:29:03;;;;;;;18.63;10.80;;;;;;;1.51;92.06;101989.25;5065488;28;20082;-70
2022/04/10 06:31:28;;;;;;;18.20;11.10;;;;;;;1.66;92.79;101991.59;5065625;28;20024;-70
2022/04/10 06:33:56;;;;;;;20.92;11.73;;;;;;;1.75;92.57;101999.19;5069083;28;20029;-70
2022/04/10 06:36:22;;;;;;;19.60;12.65;;;;;;;1.89;93.05;101994.56;5070573;28;20052;-70
2022/04/10 06:38:49;;;;;;;21.35;12.38;;;;;;;2.01;92.92;101997.84;5071312;28;20038;-70
2022/04/10 06:41:15;;;;;;;22.63;12.27;;;;;;;2.14;92.54;101999.28;5070759;28;20020;-69
2022/04/10 06:43:40;;;;;;;27.42;12.77;;;;;;;2.27;91.86;102005.06;5071040;28;20032;-70
2022/04/10 06:46:06;;;;;;;20.77;12.63;;;;;;;2.39;92.77;102010.84;5072459;28;20380;-70
2022/04/10 06:48:32;;;;;;;21.38;12.05;;;;;;;2.50;91.90;101997.66;5071924;28;20055;-70
2022/04/10 06:51:06;;;;;;;18.85;12.20;;;;;;;2.62;91.46;101996.53;5071999;28;20017;-70
2022/04/10 06:53:31;;;;;;;24.98;12.35;;;;;;;2.76;91.58;102004.84;5071446;28;20426;-70
2022/04/10 06:55:57;;;;;;;19.00;11.23;;;;;;;2.91;90.84;102009.72;5072459;28;20102;-70
2022/04/10 06:58:22;;;;;;;19.73;11.90;;;;;;;3.02;90.82;102007.69;5071761;28;20031;-69
2022/04/10 07:00:48;;;;;;;18.98;11.35;;;;;;;3.14;90.31;102006.53;5068138;28;20053;-69
2022/04/10 07:03:14;;;;;;;17.23;10.68;;;;;;;3.27;89.31;102015.78;5055385;28;20025;-69
2022/04/10 07:05:40;;;;;;;23.63;10.35;;;;;;;3.41;88.80;102020.63;5065815;28;20058;-69
2022/04/10 07:08:05;;;;;;;18.27;10.88;;;;;;;3.52;88.56;102017.72;5060742;28;20028;-70
2022/04/10 07:10:31;;;;;;;21.42;11.85;;;;;;;3.66;88.74;102026.91;5053665;28;20366;-69
2022/04/10 07:12:56;;;;;;;19.40;10.45;;;;;;;3.75;87.38;102020.59;5050613;28;20028;-69
2022/04/10 07:15:21;;;;;;;19.10;11.40;;;;;;;3.85;87.26;102016.00;5052961;28;20386;-70
2022/04/10 07:17:47;;;;;;;17.52;11.00;;;;;;;3.95;86.46;102022.66;5056627;28;20183;-69
2022/04/10 07:20:12;;;;;;;20.65;10.88;;;;;;;4.05;86.67;102019.78;5056369;28;20027;-69
2022/04/10 07:25:22;;;;;;;19.27;10.77;;;;;;;4.27;85.57;102025.22;5064724;28;20098;-70
2022/04/10 07:27:48;;;;;;;19.27;11.07;;;;;;;4.38;85.84;102030.09;5069084;28;20092;-69
2022/04/10 07:30:14;;;;;;;17.25;10.82;;;;;;;4.50;85.11;102019.34;5069544;28;20099;-69
2022/04/10 07:32:39;;;;;;;18.02;11.65;;;;;;;4.62;85.16;102026.78;5070885;28;20055;-69
2022/04/10 07:35:05;;;;;;;22.30;11.25;;;;;;;4.74;85.04;102030.75;5070418;28;20016;-69
2022/04/10 07:37:31;;;;;;;18.90;11.10;;;;;;;4.87;85.13;102029.50;5071408;28;20024;-68
2022/04/10 07:39:59;;;;;;;16.65;9.55;;;;;;;5.00;83.84;102033.41;5067079;28;20039;-68
2022/04/10 07:42:26;;;;;;;16.33;9.60;;;;;;;5.15;83.86;102037.28;5069466;28;20587;-69
2022/04/10 07:44:54;;;;;;;17.60;8.15;;;;;;;5.28;82.05;102033.38;5070740;28;20024;-68
2022/04/10 07:47:26;;;;;;;19.98;7.95;;;;;;;5.44;81.30;102044.16;5070599;28;20164;-70
2022/04/10 07:49:53;;;;;;;12.10;7.75;;;;;;;5.59;80.92;102037.56;5070931;28;20032;-70
2022/04/10 07:52:22;;;;;;;10.73;6.95;;;;;;;5.73;80.43;102039.72;5066846;28;20028;-70
2022/04/10 07:54:49;;;;;;;16.10;6.43;;;;;;;5.85;78.42;102049.72;5071222;28;20392;-69
2022/04/10 07:57:16;;;;;;;10.68;5.70;;;;;;;5.96;77.27;102055.44;5074438;28;20028;-69
2022/04/10 07:59:43;;;;;;;14.73;6.00;;;;;;;6.14;76.78;102054.81;5070668;28;20045;-68
2022/04/10 08:02:09;;;;;;;11.00;5.60;;;;;;;6.26;76.33;102056.97;5068634;28;20104;-69
2022/04/10 08:04:35;;;;;;;11.68;5.45;;;;;;;6.36;74.61;102056.63;5065629;28;20095;-69
2022/04/10 08:07:02;;;;;;;15.55;5.70;;;;;;;6.47;73.79;102070.19;5068434;28;20112;-69
2022/04/10 08:09:28;;;;;;;11.73;5.25;;;;;;;6.57;73.60;102071.53;5070166;28;20016;-69
2022/04/10 08:11:58;;;;;;;13.38;5.72;;;;;;;6.71;73.76;102069.22;5071271;28;20082;-69
2022/04/10 08:14:23;;;;;;;12.18;4.85;;;;;;;6.82;73.06;102072.31;5068052;28;20467;-69
2022/04/10 08:16:49;;;;;;;10.90;4.90;;;;;;;6.94;72.64;102065.75;5069001;28;20044;-69
2022/04/10 08:19:16;;;;;;;10.40;4.80;;;;;;;7.04;71.74;102071.47;5070781;28;20016;-69
2022/04/10 08:21:41;;;;;;;8.77;3.83;;;;;;;7.17;70.57;102070.03;5069957;28;20021;-69
2022/04/10 08:24:09;;;;;;;8.93;4.35;;;;;;;7.30;71.63;102068.66;5070795;28;20024;-71
2022/04/10 08:26:34;;;;;;;9.50;4.35;;;;;;;7.44;70.54;102070.69;5064095;28;20032;-69
2022/04/10 08:28:59;;;;;;;10.63;3.72;;;;;;;7.57;68.94;102071.88;5067847;28;20069;-69
2022/04/10 08:31:28;;;;;;;6.50;2.78;;;;;;;7.69;66.92;102071.41;5070965;28;20025;-69
2022/04/10 08:33:53;;;;;;;9.20;3.05;;;;;;;7.82;66.23;102063.84;5070604;28;20515;-70
2022/04/10 08:36:19;;;;;;;8.82;2.50;;;;;;;7.99;65.89;102068.34;5069666;28;20048;-69
2022/04/10 08:38:45;;;;;;;7.18;2.45;;;;;;;8.10;64.38;102072.22;5067132;28;20017;-69
2022/04/10 08:41:12;;;;;;;9.75;2.35;;;;;;;8.18;63.63;102079.75;5067764;28;20063;-69
2022/04/10 08:43:38;;;;;;;7.45;2.38;;;;;;;8.21;63.30;102069.13;5068300;28;20111;-69
2022/04/10 08:46:04;;;;;;;7.00;2.80;;;;;;;8.29;64.24;102076.66;5070513;28;20124;-69
2022/04/10 08:48:30;;;;;;;7.70;2.55;;;;;;;8.33;62.60;102078.22;5054327;28;20024;-69
2022/04/10 08:50:58;;;;;;;9.27;2.33;;;;;;;8.37;61.73;102085.06;5076612;28;20398;-69
2022/04/10 08:53:25;;;;;;;8.57;2.20;;;;;;;8.34;61.28;102090.44;5070949;28;20025;-69
2022/04/10 08:55:51;;;;;;;8.63;2.30;;;;;;;8.38;60.53;102081.50;5074322;28;20396;-70
2022/04/10 08:58:18;;;;;;;8.20;1.90;;;;;;;8.35;61.56;102092.13;5076133;28;20089;-70
2022/04/10 09:00:44;;;;;;;7.05;2.67;;;;;;;8.32;61.08;102102.72;5077073;28;20041;-69
2022/04/10 09:03:10;;;;;;;8.60;3.13;;;;;;;8.32;63.65;102097.47;5069386;28;20684;-70
2022/04/10 09:05:35;;;;;;;9.32;3.25;;;;;;;8.30;65.13;102089.69;5069960;28;20484;-70
2022/04/10 09:08:17;;;;;;;7.72;3.50;;;;;;;8.29;65.53;102097.63;5068776;28;20036;-70
2022/04/10 09:11:08;;;;;;;9.40;3.42;;;;;;;8.32;66.24;102098.34;5057069;28;20422;-70
2022/04/10 09:13:47;;;;;;;9.50;3.75;;;;;;;8.34;66.68;102106.16;5070198;28;20418;-70
2022/04/10 09:16:15;;;;;;;8.80;3.22;;;;;;;8.36;66.01;102107.81;5069796;28;20074;-70
2022/04/10 09:18:58;;;;;;;9.18;3.13;;;;;;;8.35;65.59;102094.75;5069336;28;20446;-69
2022/04/10 09:21:33;;;;;;;10.27;3.03;;;;;;;8.31;64.48;102101.88;5069550;28;20056;-69
2022/04/10 09:24:13;;;;;;;7.53;2.78;;;;;;;8.33;65.16;102099.19;5074178;28;20082;-70
2022/04/10 09:26:43;;;;;;;8.50;3.05;;;;;;;8.37;62.50;102106.03;5065330;28;20388;-70
2022/04/10 09:29:09;;;;;;;9.18;3.00;;;;;;;8.44;63.07;102097.00;5068687;28;20472;-70
2022/04/10 09:31:39;;;;;;;7.57;3.05;;;;;;;8.49;62.28;102095.00;5069000;28;20115;-70
2022/04/10 09:34:09;;;;;;;10.18;2.72;;;;;;;8.54;61.30;102098.28;5068315;28;20366;-70
2022/04/10 09:36:43;;;;;;;7.93;2.63;;;;;;;8.76;63.93;102104.22;5069534;28;20032;-70
2022/04/10 09:39:14;;;;;;;6.72;2.53;;;;;;;8.92;61.78;102087.78;5068094;28;20081;-69
2022/04/10 09:41:42;;;;;;;5.30;2.30;;;;;;;9.01;60.06;102097.84;5063589;28;20020;-69
2022/04/10 09:44:14;;;;;;;7.82;2.30;;;;;;;9.17;59.31;102085.69;5067658;28;20416;-69
2022/04/10 09:46:40;;;;;;;4.28;2.35;;;;;;;9.28;59.26;102080.78;5067998;28;20058;-69
2022/04/10 09:49:11;;;;;;;8.15;1.90;;;;;;;9.46;59.18;102094.78;5064388;28;20485;-69
2022/04/10 09:51:37;;;;;;;6.43;2.33;;;;;;;9.56;58.01;102087.28;5065941;28;20025;-70
2022/04/10 09:54:04;;;;;;;10.27;2.60;;;;;;;9.73;59.40;102092.56;5066211;28;20028;-69
2022/04/10 09:56:30;;;;;;;6.40;2.33;;;;;;;9.80;54.84;102087.84;5066350;28;20506;-69
2022/04/10 09:58:58;;;;;;;9.57;2.25;;;;;;;9.90;53.98;102097.78;5067052;28;20458;-69
2022/04/10 10:01:26;;;;;;;6.93;2.00;;;;;;;10.02;54.64;102085.81;5066075;28;20476;-69
2022/04/10 10:03:52;;;;;;;6.28;1.90;;;;;;;10.15;54.18;102093.91;5064478;28;20050;-69
2022/04/10 10:06:20;;;;;;;5.88;2.05;;;;;;;10.23;51.61;102091.75;5067573;28;20039;-70
2022/04/10 10:08:47;;;;;;;6.20;2.30;;;;;;;10.33;52.75;102091.19;5067817;28;20333;-69
2022/04/10 10:11:13;;;;;;;5.85;2.25;;;;;;;10.50;52.44;102079.78;5064038;28;20025;-69
2022/04/10 10:13:40;;;;;;;3.88;1.70;;;;;;;10.70;51.76;102080.47;5067384;28;20463;-69
2022/04/10 10:16:07;;;;;;;5.00;2.17;;;;;;;10.75;50.76;102076.66;5060767;28;20036;-69
2022/04/10 10:18:33;;;;;;;5.72;2.00;;;;;;;10.82;50.96;102079.81;5068378;28;20099;-69
2022/04/10 10:20:58;;;;;;;5.53;2.05;;;;;;;11.00;51.74;102076.16;5067376;28;20111;-69
2022/04/10 10:23:25;;;;;;;4.65;1.98;;;;;;;11.20;52.15;102070.59;5067212;28;20388;-71
2022/04/10 10:26:08;;;;;;;6.28;2.40;;;;;;;11.30;51.02;102069.16;5064538;28;20431;-69
2022/04/10 10:28:59;;;;;;;7.60;2.10;;;;;;;11.43;51.39;102071.06;5063767;28;20506;-69
2022/04/10 10:31:46;;;;;;;5.70;2.00;;;;;;;11.62;51.51;102069.06;5065703;28;20025;-69
2022/04/10 10:34:12;;;;;;;6.40;2.17;;;;;;;11.71;47.13;102060.63;5068185;28;20069;-71
2022/04/10 10:36:37;;;;;;;5.95;1.70;;;;;;;11.83;48.28;102065.19;5067701;28;20492;-69
2022/04/10 10:39:08;;;;;;;7.72;2.92;;;;;;;11.99;48.58;102058.97;5067836;28;20031;-69
2022/04/10 10:41:41;;;;;;;5.55;2.10;;;;;;;11.95;48.13;102057.47;5067340;28;20108;-69
2022/04/10 10:44:24;;;;;;;5.93;2.28;;;;;;;12.00;50.46;102064.16;5068297;28;20024;-69
2022/04/10 10:46:57;;;;;;;5.70;1.83;;;;;;;11.95;48.28;102073.28;5061653;28;20119;-69
2022/04/10 10:49:22;;;;;;;;;;;;;;;12.05;51.96;102069.19;5066625;28;20054;-72
2022/04/10 10:51:51;;;;;;;7.27;1.97;;;;;;;11.90;47.67;102066.50;5068273;28;19917;-69
2022/04/10 10:54:32;;;;;;;6.40;2.28;;;;;;;11.98;47.43;102067.84;5062583;28;20280;-69
2022/04/10 10:57:25;;;;;;;5.78;2.17;;;;;;;12.05;49.26;102071.81;5065500;28;20067;-69
2022/04/10 10:59:52;;;;;;;;;;;;;;;12.14;52.34;102069.47;5068713;28;20040;-71
2022/04/10 11:02:19;;;;;;;7.82;2.28;;;;;;;12.15;47.99;102063.25;5068173;28;20007;-69
2022/04/10 11:04:50;;;;;;;8.00;2.40;;;;;;;12.09;46.13;102061.00;5066718;28;20020;-69
2022/04/10 11:07:18;;;;;;;6.55;2.00;;;;;;;12.17;47.13;102063.16;5068149;28;20016;-69
2022/04/10 11:10:00;;;;;;;4.80;2.25;;;;;;;12.37;47.59;102054.00;5067653;28;20028;-69
2022/04/10 11:12:45;;;;;;;5.40;2.20;;;;;;;12.43;46.24;102059.78;5053664;28;20043;-69
2022/04/10 11:15:23;;;;;;;5.10;2.28;;;;;;;12.50;46.28;102057.59;5060401;28;20032;-69
2022/04/10 11:17:51;;;;;;;6.13;2.20;;;;;;;12.52;44.83;102056.53;5066802;28;20028;-69
2022/04/10 11:20:20;;;;;;;6.65;2.47;;;;;;;12.63;47.70;102062.94;5068858;28;20138;-69
2022/04/10 11:22:52;;;;;;;6.20;2.75;;;;;;;12.60;46.33;102057.84;5070882;28;20031;-69
2022/04/10 11:25:19;;;;;;;7.55;2.38;;;;;;;12.48;46.12;102057.69;5067716;28;20070;-69